Bookmark and Share
Track history (hours):
 

Boryslav

Last reported at 2014-Apr-24 06:13 UTC. Time now 2014-Apr-24 11:12 UTC.
Position N 46°29' E 030°45'.

Length 86 m; draft 2.3 m.

MMSI: 272088700.

NotesDate/timePositionNaut miles runAvg speedWind from/ knotsBaromVisibWave heightAir tempDewpointWater temp
2014-Apr-24 06:13N 46°29' E 030°45'0 0.0
2014-Apr-24 05:33N 46°29' E 030°45'0 0.0
2014-Apr-24 04:23N 46°29' E 030°45'0 0.0
2014-Apr-24 03:33N 46°29' E 030°45'0 0.0
2014-Apr-24 00:26N 46°29' E 030°45'0 0.0
2014-Apr-23 23:33N 46°29' E 030°45'0 0.0
2014-Apr-23 22:31N 46°29' E 030°45'0 0.0
2014-Apr-23 21:34N 46°29' E 030°45'0 0.0
2014-Apr-23 20:33N 46°29' E 030°45'0 0.0
2014-Apr-23 19:32N 46°29' E 030°45'0 0.0
2014-Apr-23 18:34N 46°29' E 030°45'0 0.0
2014-Apr-23 17:31N 46°29' E 030°45'29 1.7
2014-Apr-23 01:03N 46°35' E 031°26'3 5.9
2014-Apr-23 00:30N 46°35' E 031°30'8 6.2
2014-Apr-22 23:09N 46°36' E 031°43'0 0.5
2014-Apr-22 22:33N 46°36' E 031°43'0 0.0
2014-Apr-22 21:33N 46°36' E 031°43'6 1.2
2014-Apr-22 16:33N 46°35' E 031°52'6 6.4
2014-Apr-22 15:33N 46°33' E 032°00'  

Dump ship's entire track history

sailing weather and tide predictions

Boryslav — ENLB — position and weather